EPKT/KTW METAR and TAF weather

Enter ICAO airport designator
Station Type Date Time Source
EPKT METAR 2019/08/24 09:00 UTC NOAA

EPKT 240900Z 09015KT CAVOK 24/12 Q1025


Station Type Date Time Source
EPKT Decoded METAR 2019/08/24 09:00 UTC NOAA

Station name not available
Aug 24, 2019 - 05:00 AM EDT / 2019.08.24 0900 UTC
Wind: from the E (090 degrees) at 17 MPH (15 KT):0
Visibility: greater than 7 mile(s):0
Temperature: 75 F (24 C)
Dew Point: 53 F (12 C)
Relative Humidity: 46%
Pressure (altimeter): 30.27 in. Hg (1025 hPa)
ob: EPKT 240900Z 09015KT CAVOK 24/12 Q1025
cycle: 9

Station Type Date Time Source
EPKT TAF 2019/08/24 06:33 UTC NOAA

TAF EPKT 240530Z 2406/2506 07008KT CAVOK

Example: see airport list